0TX1 – Local Weather Observations

Pecan Plantation

This weather station is operated by a private user located just north of the field. Data is gathered via OpenWeatherMap.org.

Last updated:
2022-12-07 18:02:00(12:02 pm)

Temperature: 71.9 °F

Sunrise / Sunset: 7:17 am / 5:26 pm

Civil Dawn / Dusk: 6:50 am / 5:53 pm

Nearby METARs

KGDJ 071755Z AUTO 17008KT 140V200 10SM OVC013 22/20 A3017 RMK AO2 60001 T02180195 10219 20176

KCPT 071755Z AUTO 18009KT 9SM OVC015 22/21 A3016 RMK A01 TSNO

KFWS 071752Z 18009KT 5SM BR OVC010 22/20 A3017

KSEP 071755Z AUTO 19008KT 10SM OVC014 22/19 A3019 RMK AO2 60001 T02150185 10217 20179